Time,TemperatureF,DewpointF,PressureIn,WindDirection,WindDirectionDegrees,WindSpeedMPH,WindSpeedGustMPH,Humidity,HourlyPrecipIn,Conditions,Clouds,dailyrainin,SolarRadiationWatts/m^2,SoftwareType,DateUTC
2013-12-26 00:07:00,30.4,21.0,30.64,ESE,110,0.0,0.0,69,0.00,,,0.00,0,weatherlink.com 1.10,2013-12-26 07:07:00,
2013-12-26 00:22:00,28.9,22.0,30.64,ESE,106,0.0,0.0,74,0.00,,,0.00,0,weatherlink.com 1.10,2013-12-26 07:22:00,
2013-12-26 00:37:00,28.1,22.0,30.63,ESE,105,0.0,3.0,77,0.00,,,0.00,0,weatherlink.com 1.10,2013-12-26 07:37:00,
2013-12-26 00:52:00,27.0,22.0,30.63,WSW,258,0.0,4.0,80,0.00,,,0.00,0,weatherlink.com 1.10,2013-12-26 07:52:00,
2013-12-26 01:07:00,26.9,21.0,30.62,West,260,0.0,0.0,79,0.00,,,0.00,0,weatherlink.com 1.10,2013-12-26 08:07:00,
2013-12-26 01:22:00,27.2,22.0,30.63,West,260,0.0,0.0,79,0.00,,,0.00,0,weatherlink.com 1.10,2013-12-26 08:22:00,
2013-12-26 01:37:00,27.7,21.0,30.63,NNW,347,2.0,4.0,76,0.00,,,0.00,0,weatherlink.com 1.10,2013-12-26 08:37:00,
2013-12-26 01:52:00,28.6,21.0,30.63,North,359,0.0,3.0,74,0.00,,,0.00,0,weatherlink.com 1.10,2013-12-26 08:52:00,
2013-12-26 02:07:00,28.7,22.0,30.62,NW,306,0.0,4.0,76,0.00,,,0.00,0,weatherlink.com 1.10,2013-12-26 09:07:00,
2013-12-26 02:23:00,28.0,22.0,30.62,ESE,117,0.0,4.0,78,0.00,,,0.00,0,weatherlink.com 1.10,2013-12-26 09:23:00,
2013-12-26 02:38:00,28.4,21.0,30.62,ESE,117,0.0,1.0,75,0.00,,,0.00,0,weatherlink.com 1.10,2013-12-26 09:38:00,
2013-12-26 02:53:00,28.1,22.0,30.64,NW,306,1.0,1.0,79,0.00,,,0.00,0,weatherlink.com 1.10,2013-12-26 09:53:00,
2013-12-26 03:08:00,27.4,22.0,30.64,NW,309,0.0,1.0,79,0.00,,,0.00,0,weatherlink.com 1.10,2013-12-26 10:08:00,
2013-12-26 03:23:00,27.7,22.0,30.64,East,81,0.0,2.0,79,0.00,,,0.00,0,weatherlink.com 1.10,2013-12-26 10:23:00,
2013-12-26 03:38:00,27.8,22.0,30.64,East,81,0.0,0.0,78,0.00,,,0.00,0,weatherlink.com 1.10,2013-12-26 10:38:00,
2013-12-26 03:53:00,27.7,22.0,30.64,ENE,69,0.0,3.0,79,0.00,,,0.00,0,weatherlink.com 1.10,2013-12-26 10:53:00,
2013-12-26 04:08:00,27.6,22.0,30.63,ENE,71,0.0,3.0,80,0.00,,,0.00,0,weatherlink.com 1.10,2013-12-26 11:08:00,
2013-12-26 04:23:00,27.6,21.0,30.62,ENE,71,0.0,0.0,77,0.00,,,0.00,0,weatherlink.com 1.10,2013-12-26 11:23:00,
2013-12-26 04:38:00,27.6,22.0,30.62,WSW,243,0.0,2.0,78,0.00,,,0.00,0,weatherlink.com 1.10,2013-12-26 11:38:00,
2013-12-26 04:53:00,27.4,21.0,30.60,ESE,114,1.0,4.0,78,0.00,,,0.00,0,weatherlink.com 1.10,2013-12-26 11:53:00,
2013-12-26 05:08:00,27.3,21.0,30.59,ESE,120,0.0,4.0,78,0.00,,,0.00,0,weatherlink.com 1.10,2013-12-26 12:08:00,
2013-12-26 05:23:00,27.4,21.0,30.59,ESE,121,0.0,3.0,76,0.00,,,0.00,0,weatherlink.com 1.10,2013-12-26 12:23:00,
2013-12-26 05:38:00,27.5,21.0,30.59,SSW,202,3.0,3.0,75,0.00,,,0.00,0,weatherlink.com 1.10,2013-12-26 12:38:00,
2013-12-26 05:53:00,25.7,20.0,30.59,WNW,283,0.0,2.0,80,0.00,,,0.00,0,weatherlink.com 1.10,2013-12-26 12:53:00,
2013-12-26 06:08:00,25.6,21.0,30.59,NE,53,3.0,4.0,81,0.00,,,0.00,0,weatherlink.com 1.10,2013-12-26 13:08:00,
2013-12-26 06:23:00,26.9,21.0,30.59,NNE,33,4.0,7.0,78,0.00,,,0.00,0,weatherlink.com 1.10,2013-12-26 13:23:00,
2013-12-26 06:38:00,27.2,21.0,30.59,WNW,290,0.0,6.0,76,0.00,,,0.00,0,weatherlink.com 1.10,2013-12-26 13:38:00,
2013-12-26 06:53:00,26.0,21.0,30.59,SSW,196,0.0,1.0,80,0.00,,,0.00,0,weatherlink.com 1.10,2013-12-26 13:53:00,
2013-12-26 07:08:00,25.4,20.0,30.59,SSE,164,0.0,0.0,81,0.00,,,0.00,0,weatherlink.com 1.10,2013-12-26 14:08:00,
2013-12-26 07:23:00,25.7,21.0,30.59,ESE,102,1.0,3.0,83,0.00,,,0.00,0,weatherlink.com 1.10,2013-12-26 14:23:00,
2013-12-26 07:38:00,26.9,22.0,30.58,East,101,0.0,0.0,80,0.00,,,0.00,0,weatherlink.com 1.10,2013-12-26 14:38:00,
2013-12-26 07:53:00,26.1,21.0,30.59,ESE,106,0.0,2.0,80,0.00,,,0.00,0,weatherlink.com 1.10,2013-12-26 14:53:00,
2013-12-26 08:08:00,25.0,21.0,30.59,ESE,106,0.0,2.0,83,0.00,,,0.00,0,weatherlink.com 1.10,2013-12-26 15:08:00,
2013-12-26 08:23:00,25.5,21.0,30.59,SSW,193,0.0,2.0,83,0.00,,,0.00,0,weatherlink.com 1.10,2013-12-26 15:23:00,
2013-12-26 08:38:00,25.8,21.0,30.59,South,173,0.0,0.0,83,0.00,,,0.00,11,weatherlink.com 1.10,2013-12-26 15:38:00,
2013-12-26 08:53:00,25.2,21.0,30.60,SSW,212,0.0,1.0,83,0.00,,,0.00,44,weatherlink.com 1.10,2013-12-26 15:53:00,
2013-12-26 09:08:00,25.8,21.0,30.60,SW,229,0.0,3.0,83,0.00,,,0.00,53,weatherlink.com 1.10,2013-12-26 16:08:00,
2013-12-26 09:23:00,25.3,21.0,30.61,WSW,245,0.0,2.0,83,0.00,,,0.00,35,weatherlink.com 1.10,2013-12-26 16:23:00,
2013-12-26 09:38:00,25.2,21.0,30.60,ESE,110,0.0,3.0,83,0.00,,,0.00,49,weatherlink.com 1.10,2013-12-26 16:38:00,
2013-12-26 09:53:00,26.3,22.0,30.60,West,264,5.0,6.0,82,0.00,,,0.00,53,weatherlink.com 1.10,2013-12-26 16:53:00,
2013-12-26 10:08:00,25.9,21.0,30.60,NE,54,0.0,3.0,83,0.00,,,0.00,69,weatherlink.com 1.10,2013-12-26 17:08:00,
2013-12-26 10:23:00,26.5,21.0,30.61,SW,224,0.0,3.0,80,0.00,,,0.00,67,weatherlink.com 1.10,2013-12-26 17:23:00,
2013-12-26 10:38:00,26.4,22.0,30.60,SSE,160,0.0,1.0,82,0.00,,,0.00,81,weatherlink.com 1.10,2013-12-26 17:38:00,
2013-12-26 10:53:00,27.3,23.0,30.59,SE,125,0.0,2.0,82,0.00,,,0.00,130,weatherlink.com 1.10,2013-12-26 17:53:00,
2013-12-26 11:08:00,28.4,23.0,30.59,SE,124,0.0,1.0,81,0.00,,,0.00,135,weatherlink.com 1.10,2013-12-26 18:08:00,
2013-12-26 11:23:00,28.0,22.0,30.59,NW,323,0.0,7.0,79,0.00,,,0.00,185,weatherlink.com 1.10,2013-12-26 18:23:00,
2013-12-26 11:38:00,28.8,23.0,30.58,NNW,329,0.0,0.0,78,0.00,,,0.00,167,weatherlink.com 1.10,2013-12-26 18:38:00,
2013-12-26 11:53:00,29.2,23.0,30.57,West,270,0.0,0.0,78,0.00,,,0.00,192,weatherlink.com 1.10,2013-12-26 18:53:00,
2013-12-26 12:08:00,30.2,24.0,30.56,West,270,0.0,0.0,77,0.00,,,0.00,188,weatherlink.com 1.10,2013-12-26 19:08:00,
2013-12-26 12:23:00,30.0,24.0,30.55,West,270,0.0,1.0,77,0.00,,,0.00,160,weatherlink.com 1.10,2013-12-26 19:23:00,
2013-12-26 12:38:00,31.1,24.0,30.54,West,270,0.0,1.0,75,0.00,,,0.00,174,weatherlink.com 1.10,2013-12-26 19:38:00,
2013-12-26 12:53:00,32.3,24.0,30.53,West,270,0.0,0.0,70,0.00,,,0.00,236,weatherlink.com 1.10,2013-12-26 19:53:00,
2013-12-26 13:08:00,32.8,24.0,30.53,West,270,2.0,2.0,71,0.00,,,0.00,148,weatherlink.com 1.10,2013-12-26 20:08:00,
2013-12-26 13:23:00,32.7,25.0,30.53,ENE,75,3.0,3.0,73,0.00,,,0.00,206,weatherlink.com 1.10,2013-12-26 20:23:00,
2013-12-26 13:39:00,35.5,25.0,30.52,SE,131,0.0,1.0,66,0.00,,,0.00,362,weatherlink.com 1.10,2013-12-26 20:39:00,
2013-12-26 13:54:00,37.7,25.0,30.51,SE,133,0.0,0.0,60,0.00,,,0.00,434,weatherlink.com 1.10,2013-12-26 20:54:00,
2013-12-26 14:09:00,39.0,26.0,30.50,SE,133,0.0,1.0,59,0.00,,,0.00,385,weatherlink.com 1.10,2013-12-26 21:09:00,
2013-12-26 14:24:00,37.9,26.0,30.50,WNW,301,5.0,7.0,63,0.00,,,0.00,206,weatherlink.com 1.10,2013-12-26 21:24:00,
2013-12-26 14:39:00,36.6,26.0,30.50,WNW,295,2.0,6.0,66,0.00,,,0.00,116,weatherlink.com 1.10,2013-12-26 21:39:00,
2013-12-26 14:54:00,37.2,27.0,30.49,West,266,0.0,4.0,67,0.00,,,0.00,260,weatherlink.com 1.10,2013-12-26 21:54:00,
2013-12-26 15:09:00,36.3,27.0,30.49,WNW,299,0.0,6.0,69,0.00,,,0.00,105,weatherlink.com 1.10,2013-12-26 22:09:00,
2013-12-26 15:24:00,36.3,27.0,30.49,SW,223,1.0,3.0,70,0.00,,,0.00,77,weatherlink.com 1.10,2013-12-26 22:24:00,
2013-12-26 15:39:00,36.3,28.0,30.49,ESE,103,0.0,3.0,71,0.00,,,0.00,60,weatherlink.com 1.10,2013-12-26 22:39:00,
2013-12-26 15:54:00,36.4,27.0,30.49,ESE,111,3.0,4.0,69,0.00,,,0.00,63,weatherlink.com 1.10,2013-12-26 22:54:00,
2013-12-26 16:09:00,36.8,27.0,30.49,WNW,302,0.0,7.0,69,0.00,,,0.00,74,weatherlink.com 1.10,2013-12-26 23:09:00,
2013-12-26 16:24:00,36.2,28.0,30.49,ESE,111,2.0,3.0,71,0.00,,,0.00,25,weatherlink.com 1.10,2013-12-26 23:24:00,
2013-12-26 16:39:00,36.0,27.0,30.49,East,100,0.0,1.0,71,0.00,,,0.00,11,weatherlink.com 1.10,2013-12-26 23:39:00,
2013-12-26 16:54:00,35.6,26.0,30.50,ENE,59,0.0,4.0,69,0.00,,,0.00,5,weatherlink.com 1.10,2013-12-26 23:54:00,
2013-12-26 17:09:00,35.5,27.0,30.50,WSW,246,0.0,5.0,71,0.00,,,0.00,0,weatherlink.com 1.10,2013-12-27 00:09:00,
2013-12-26 17:24:00,35.1,27.0,30.50,ENE,60,0.0,4.0,71,0.00,,,0.00,0,weatherlink.com 1.10,2013-12-27 00:24:00,
2013-12-26 17:39:00,35.3,27.0,30.50,ENE,65,0.0,4.0,72,0.00,,,0.00,0,weatherlink.com 1.10,2013-12-27 00:39:00,
2013-12-26 17:54:00,35.1,27.0,30.49,ENE,65,3.0,3.0,71,0.00,,,0.00,0,weatherlink.com 1.10,2013-12-27 00:54:00,
2013-12-26 18:09:00,35.1,27.0,30.49,ENE,67,0.0,1.0,72,0.00,,,0.00,0,weatherlink.com 1.10,2013-12-27 01:09:00,
2013-12-26 18:24:00,34.7,27.0,30.50,ENE,67,2.0,3.0,73,0.00,,,0.00,0,weatherlink.com 1.10,2013-12-27 01:24:00,
2013-12-26 18:39:00,34.4,27.0,30.49,ENE,69,0.0,4.0,74,0.00,,,0.00,0,weatherlink.com 1.10,2013-12-27 01:39:00,
2013-12-26 18:54:00,34.4,27.0,30.49,ENE,69,0.0,0.0,73,0.00,,,0.00,0,weatherlink.com 1.10,2013-12-27 01:54:00,
2013-12-26 19:09:00,34.0,27.0,30.48,ENE,69,0.0,2.0,76,0.00,,,0.00,0,weatherlink.com 1.10,2013-12-27 02:09:00,
2013-12-26 19:24:00,31.7,26.0,30.48,NE,48,3.0,8.0,79,0.00,,,0.00,0,weatherlink.com 1.10,2013-12-27 02:24:00,
2013-12-26 19:39:00,32.5,27.0,30.48,NE,56,0.0,0.0,79,0.00,,,0.00,0,weatherlink.com 1.10,2013-12-27 02:39:00,
2013-12-26 19:54:00,32.4,26.0,30.49,NNE,23,1.0,4.0,78,0.00,,,0.00,0,weatherlink.com 1.10,2013-12-27 02:54:00,
2013-12-26 20:09:00,32.6,26.0,30.49,ENE,57,0.0,4.0,78,0.00,,,0.00,0,weatherlink.com 1.10,2013-12-27 03:09:00,
2013-12-26 20:24:00,31.4,26.0,30.49,NE,34,0.0,3.0,79,0.00,,,0.00,0,weatherlink.com 1.10,2013-12-27 03:24:00,
2013-12-26 20:39:00,31.7,26.0,30.50,NE,56,0.0,3.0,79,0.00,,,0.00,0,weatherlink.com 1.10,2013-12-27 03:39:00,
2013-12-26 20:54:00,32.0,26.0,30.50,NE,54,0.0,2.0,78,0.00,,,0.00,0,weatherlink.com 1.10,2013-12-27 03:54:00,
2013-12-26 21:09:00,32.0,26.0,30.50,NE,54,0.0,2.0,77,0.00,,,0.00,0,weatherlink.com 1.10,2013-12-27 04:09:00,
2013-12-26 21:24:00,31.2,26.0,30.51,NE,54,0.0,0.0,80,0.00,,,0.00,0,weatherlink.com 1.10,2013-12-27 04:24:00,
2013-12-26 21:39:00,33.2,27.0,30.50,ENE,67,3.0,4.0,78,0.00,,,0.00,0,weatherlink.com 1.10,2013-12-27 04:39:00,
2013-12-26 21:54:00,31.0,26.0,30.50,ENE,70,2.0,3.0,82,0.00,,,0.00,0,weatherlink.com 1.10,2013-12-27 04:54:00,
2013-12-26 22:09:00,31.0,25.0,30.50,West,260,0.0,4.0,79,0.00,,,0.00,0,weatherlink.com 1.10,2013-12-27 05:09:00,
2013-12-26 22:24:00,30.4,25.0,30.50,NW,323,2.0,3.0,80,0.00,,,0.00,0,weatherlink.com 1.10,2013-12-27 05:24:00,
2013-12-26 22:39:00,29.6,25.0,30.51,SW,234,0.0,4.0,82,0.00,,,0.00,0,weatherlink.com 1.10,2013-12-27 05:39:00,
2013-12-26 22:54:00,28.9,25.0,30.50,NNE,27,0.0,3.0,84,0.00,,,0.00,0,weatherlink.com 1.10,2013-12-27 05:54:00,
2013-12-26 23:09:00,29.4,25.0,30.51,ENE,63,2.0,2.0,83,0.00,,,0.00,0,weatherlink.com 1.10,2013-12-27 06:09:00,
2013-12-26 23:24:00,30.7,26.0,30.51,ENE,64,0.0,0.0,81,0.00,,,0.00,0,weatherlink.com 1.10,2013-12-27 06:24:00,
2013-12-26 23:39:00,30.8,26.0,30.51,NE,52,6.0,7.0,82,0.00,,,0.00,0,weatherlink.com 1.10,2013-12-27 06:39:00,
2013-12-26 23:54:00,29.6,24.0,30.51,WNW,282,3.0,7.0,80,0.00,,,0.00,0,weatherlink.com 1.10,2013-12-27 06:54:00,